Time;durP1;ratioP1;P1;durP2;ratioP2;P2;SDS_P1;SDS_P2;PMS_P1;PMS_P2;Temp;Humidity;BMP_temperature;BMP_pressure;BME280_temperature;BME280_humidity;BME280_pressure;Samples;Min_cycle;Max_cycle;Signal;HPM_P1;HPM_P2
2022/06/05 00:00:23;;;;;;;6.75;4.70;;;23.90;99.90;;;;;;5008737;28;20091;-51
2022/06/05 00:03:18;;;;;;;13.38;5.50;;;23.80;99.90;;;;;;5017438;28;20125;-51
2022/06/05 00:06:14;;;;;;;9.30;5.25;;;23.50;99.90;;;;;;5023162;28;20489;-50
2022/06/05 00:09:18;;;;;;;9.57;5.28;;;23.60;99.90;;;;;;5022343;28;20115;-50
2022/06/05 00:11:52;;;;;;;14.43;6.22;;;23.60;99.90;;;;;;4990480;28;20136;-51
2022/06/05 00:14:18;;;;;;;8.40;5.13;;;23.70;99.90;;;;;;4955173;28;20453;-51
2022/06/05 00:16:44;;;;;;;7.97;5.05;;;23.70;99.90;;;;;;4992177;28;20046;-50
2022/06/05 00:19:12;;;;;;;11.38;5.50;;;23.70;99.90;;;;;;4932325;28;20049;-51
2022/06/05 00:21:38;;;;;;;8.93;5.38;;;23.70;99.90;;;;;;4991538;28;20042;-50
2022/06/05 00:24:04;;;;;;;9.93;5.75;;;23.70;99.90;;;;;;4959483;28;20053;-51
2022/06/05 00:26:48;;;;;;;10.27;6.95;;;23.60;99.90;;;;;;5019684;28;20050;-51
2022/06/05 00:29:49;;;;;;;10.35;6.20;;;23.60;99.90;;;;;;4987892;28;20436;-51
2022/06/05 00:32:35;;;;;;;11.23;6.70;;;23.60;99.90;;;;;;5022889;28;20042;-51
2022/06/05 00:35:01;;;;;;;8.70;5.93;;;23.50;99.90;;;;;;5022762;28;20069;-51
2022/06/05 00:37:34;;;;;;;11.32;5.80;;;23.40;99.90;;;;;;5013759;28;20454;-50
2022/06/05 00:40:09;;;;;;;6.85;5.57;;;23.50;99.90;;;;;;5021497;28;20041;-51
2022/06/05 00:42:35;;;;;;;9.25;5.68;;;23.60;99.90;;;;;;5020567;28;20099;-52
2022/06/05 00:45:07;;;;;;;10.73;5.70;;;23.50;99.90;;;;;;5021761;28;20168;-51
2022/06/05 00:47:34;;;;;;;9.10;5.78;;;23.60;99.90;;;;;;5040314;28;20391;-51
2022/06/05 00:50:14;;;;;;;10.52;5.88;;;23.60;99.90;;;;;;5049610;28;20410;-51
2022/06/05 00:52:43;;;;;;;9.50;5.70;;;23.50;99.90;;;;;;5096577;28;20048;-51
2022/06/05 00:55:09;;;;;;;11.48;5.97;;;23.60;99.90;;;;;;5075560;28;20544;-51
2022/06/05 00:57:37;;;;;;;11.30;5.35;;;23.50;99.90;;;;;;5081884;28;20093;-51
2022/06/05 01:00:13;;;;;;;9.73;5.78;;;23.50;99.90;;;;;;5084493;28;20074;-50
2022/06/05 01:02:43;;;;;;;16.33;6.95;;;23.50;99.90;;;;;;5096605;28;20416;-51
2022/06/05 01:05:10;;;;;;;8.55;5.43;;;23.50;99.90;;;;;;5081491;28;20035;-51
2022/06/05 01:07:36;;;;;;;8.65;5.45;;;23.50;99.90;;;;;;5075522;28;20471;-52
2022/06/05 01:10:03;;;;;;;10.80;5.82;;;23.40;99.90;;;;;;5045405;28;20044;-51
2022/06/05 01:12:47;;;;;;;11.20;5.97;;;23.40;99.90;;;;;;5093731;28;20048;-52
2022/06/05 01:15:51;;;;;;;10.75;5.90;;;23.40;99.90;;;;;;5082810;28;20043;-51
2022/06/05 01:18:21;;;;;;;8.10;5.43;;;23.50;99.90;;;;;;5069371;28;20033;-51
2022/06/05 01:21:08;;;;;;;9.10;5.45;;;23.50;99.90;;;;;;5063764;28;20063;-51
2022/06/05 01:23:45;;;;;;;8.18;5.13;;;23.50;99.90;;;;;;5074235;28;20036;-51
2022/06/05 01:26:23;;;;;;;10.00;5.07;;;23.50;99.90;;;;;;5074414;28;20098;-50
2022/06/05 01:28:53;;;;;;;8.98;5.53;;;23.50;99.90;;;;;;5073964;28;20021;-51
2022/06/05 01:31:45;;;;;;;10.43;5.47;;;23.50;99.90;;;;;;5074728;28;20033;-51
2022/06/05 01:34:10;;;;;;;;;;;23.50;99.90;;;;;;5038385;28;20055;-51
2022/06/05 01:37:01;;;;;;;13.40;5.32;;;23.50;99.90;;;;;;5040431;28;19908;-51
2022/06/05 01:39:45;;;;;;;8.18;4.78;;;23.50;99.90;;;;;;5074022;28;20048;-51
2022/06/05 01:42:17;;;;;;;11.57;6.15;;;23.50;99.90;;;;;;5056549;28;20046;-50
2022/06/05 01:44:47;;;;;;;14.35;5.80;;;23.50;99.90;;;;;;5073630;28;20036;-51
2022/06/05 01:47:24;;;;;;;9.07;5.38;;;23.40;99.90;;;;;;5045562;28;20040;-51
2022/06/05 01:50:02;;;;;;;9.45;5.28;;;23.40;99.90;;;;;;5053598;28;20028;-51
2022/06/05 01:52:56;;;;;;;10.73;5.90;;;23.40;99.90;;;;;;5065760;28;20040;-50
2022/06/05 01:55:44;;;;;;;13.90;5.75;;;23.30;99.90;;;;;;5064215;28;20040;-50
2022/06/05 01:58:13;;;;;;;12.65;5.63;;;23.30;99.90;;;;;;5055725;28;20024;-50
2022/06/05 02:00:39;;;;;;;11.35;6.30;;;23.40;99.90;;;;;;5063983;28;20029;-52
2022/06/05 02:03:17;;;;;;;9.85;6.32;;;23.30;99.90;;;;;;5064934;28;20079;-51
2022/06/05 02:05:52;;;;;;;10.60;6.28;;;23.20;99.90;;;;;;5056656;28;20503;-50
2022/06/05 02:08:46;;;;;;;9.88;5.80;;;23.20;99.90;;;;;;5045418;28;20547;-51
2022/06/05 02:11:24;;;;;;;14.77;7.18;;;23.20;99.90;;;;;;5060971;28;20037;-51
2022/06/05 02:13:54;;;;;;;14.98;6.63;;;23.20;99.90;;;;;;5056366;28;20068;-50
2022/06/05 02:16:20;;;;;;;10.13;6.47;;;23.20;99.90;;;;;;5060865;28;20029;-51
2022/06/05 02:18:47;;;;;;;10.55;6.53;;;23.10;99.90;;;;;;5095637;28;20119;-51
2022/06/05 02:21:12;;;;;;;11.00;6.97;;;23.10;99.90;;;;;;5081315;28;20085;-50
2022/06/05 02:23:39;;;;;;;9.55;5.78;;;23.10;99.90;;;;;;5084187;28;20036;-51
2022/06/05 02:26:07;;;;;;;11.05;6.57;;;23.10;99.90;;;;;;5047377;28;20047;-51
2022/06/05 02:28:33;;;;;;;10.55;6.05;;;23.10;99.90;;;;;;5084863;28;20403;-51
2022/06/05 02:31:35;;;;;;;9.93;6.07;;;23.10;99.90;;;;;;5060545;28;20032;-50
2022/06/05 02:34:09;;;;;;;8.57;5.60;;;23.00;99.90;;;;;;5052588;28;20037;-51
2022/06/05 02:36:51;;;;;;;10.63;6.75;;;23.00;99.90;;;;;;5052814;28;20051;-52
2022/06/05 02:39:48;;;;;;;13.02;6.80;;;22.80;99.90;;;;;;5052647;28;20119;-51
2022/06/05 02:42:42;;;;;;;10.10;6.22;;;22.40;99.90;;;;;;4983951;28;20148;-51
2022/06/05 02:45:22;;;;;;;10.57;5.88;;;;;;;;;;4990125;28;20129;-50
2022/06/05 02:48:20;;;;;;;9.82;5.68;;;;;;;;;;4983812;28;20551;-50
2022/06/05 02:51:00;;;;;;;7.63;5.75;;;21.50;99.90;;;;;;4983598;28;20097;-50
2022/06/05 02:53:26;;;;;;;11.68;5.85;;;21.50;99.90;;;;;;4982697;28;20497;-52
2022/06/05 02:55:51;;;;;;;12.18;6.50;;;21.70;99.90;;;;;;4982659;28;20125;-51
2022/06/05 02:58:17;;;;;;;12.52;6.15;;;22.00;99.90;;;;;;4981520;28;20053;-50
2022/06/05 03:03:27;;;;;;;11.38;6.63;;;22.10;99.90;;;;;;4992551;28;20482;-51
2022/06/05 03:03:29;;;;;;;13.32;6.82;;;22.30;99.90;;;;;;4983444;28;20113;-52
2022/06/05 03:05:55;;;;;;;9.35;5.95;;;22.30;99.90;;;;;;4982882;28;20042;-51
2022/06/05 03:08:21;;;;;;;11.85;6.00;;;22.30;99.90;;;;;;4964740;28;20129;-50
2022/06/05 03:10:47;;;;;;;12.27;6.78;;;;;;;;;;4961488;28;20047;-51
2022/06/05 03:13:14;;;;;;;11.25;5.82;;;22.60;99.90;;;;;;4959627;28;20484;-51
2022/06/05 03:15:41;;;;;;;8.93;5.90;;;22.50;99.90;;;;;;4970774;28;20435;-51
2022/06/05 03:18:07;;;;;;;11.55;5.90;;;22.50;99.90;;;;;;4982962;28;20034;-51
2022/06/05 03:20:34;;;;;;;9.25;5.53;;;;;;;;;;5009627;28;20119;-51
2022/06/05 03:23:00;;;;;;;11.63;6.68;;;22.60;99.90;;;;;;5042657;28;20080;-50
2022/06/05 03:25:27;;;;;;;11.38;6.60;;;;;;;;;;5030315;28;20063;-51
2022/06/05 03:27:53;;;;;;;13.05;6.43;;;21.90;99.90;;;;;;5078100;28;20090;-51
2022/06/05 03:30:19;;;;;;;14.13;6.85;;;;;;;;;;5085775;28;20036;-52
2022/06/05 03:32:46;;;;;;;14.73;6.70;;;21.10;99.90;;;;;;5074821;28;20101;-51
2022/06/05 03:35:13;;;;;;;8.52;6.65;;;;;;;;;;5082629;28;20033;-51
2022/06/05 03:37:39;;;;;;;7.85;5.93;;;20.70;99.90;;;;;;5088639;28;20045;-51
2022/06/05 03:40:09;;;;;;;9.35;6.40;;;;;;;;;;5083700;28;20032;-51
2022/06/05 03:42:36;;;;;;;14.73;6.10;;;;;;;;;;5083775;28;20102;-51
2022/06/05 03:45:02;;;;;;;12.30;7.00;;;;;;;;;;5080823;28;20033;-51
2022/06/05 03:47:28;;;;;;;11.65;6.57;;;;;;;;;;5061132;28;20069;-51
2022/06/05 03:49:54;;;;;;;7.93;6.32;;;;;;;;;;5083293;28;20020;-50
2022/06/05 03:52:20;;;;;;;9.48;7.15;;;;;;;;;;5083811;28;20568;-51
2022/06/05 03:54:46;;;;;;;13.88;6.70;;;;;;;;;;5083376;28;20032;-51
2022/06/05 03:57:12;;;;;;;12.90;7.20;;;;;;;;;;5085604;28;20024;-50
2022/06/05 03:59:38;;;;;;;9.23;6.88;;;;;;;;;;5089323;28;20060;-51
2022/06/05 04:02:05;;;;;;;11.80;7.10;;;;;;;;;;5083177;28;20056;-51
2022/06/05 04:04:31;;;;;;;9.80;7.07;;;;;;;;;;5077187;28;20064;-51
2022/06/05 04:06:57;;;;;;;17.13;7.18;;;;;;;;;;5084450;28;20078;-51
2022/06/05 04:09:24;;;;;;;10.25;7.38;;;;;;;;;;5083443;28;20062;-51
2022/06/05 04:11:50;;;;;;;10.27;7.18;;;;;;;;;;5084331;28;20028;-50
2022/06/05 04:14:16;;;;;;;10.48;7.25;;;;;;;;;;5084806;28;20400;-51
2022/06/05 04:16:43;;;;;;;12.63;6.40;;;;;;;;;;5089461;28;20391;-50
2022/06/05 04:19:09;;;;;;;13.00;7.85;;;;;;;;;;5083986;28;20427;-53
2022/06/05 04:21:36;;;;;;;10.25;7.20;;;;;;;;;;5049353;28;20032;-51
2022/06/05 04:24:03;;;;;;;14.43;6.78;;;;;;;;;;5084855;28;20042;-51
2022/06/05 04:26:30;;;;;;;12.70;8.23;;;;;;;;;;5062465;28;20147;-51
2022/06/05 04:28:57;;;;;;;12.15;7.72;;;;;;;;;;5074942;28;20043;-50
2022/06/05 04:31:31;;;;;;;13.77;7.25;;;;;;;;;;5083258;28;20035;-51
2022/06/05 04:33:58;;;;;;;9.55;7.65;;;;;;;;;;5078232;28;20471;-51
2022/06/05 04:36:25;;;;;;;9.15;7.50;;;;;;;;;;5079828;28;20032;-51
2022/06/05 04:38:51;;;;;;;10.43;6.93;;;;;;;;;;5084351;28;20032;-51
2022/06/05 04:41:21;;;;;;;9.55;6.95;;;;;;;;;;5073428;28;20090;-51
2022/06/05 04:43:48;;;;;;;10.10;6.80;;;;;;;;;;5084186;28;20391;-51
2022/06/05 04:46:14;;;;;;;8.23;6.53;;;;;;;;;;5075376;28;20029;-51
2022/06/05 04:48:40;;;;;;;9.90;7.15;;;;;;;;;;5082531;28;20020;-51
2022/06/05 04:51:07;;;;;;;10.52;6.60;;;;;;;;;;5082167;28;20029;-51
2022/06/05 04:53:33;;;;;;;12.98;7.03;;;;;;;;;;5081821;28;20070;-52
2022/06/05 04:56:03;;;;;;;11.20;6.20;;;;;;;;;;5082594;28;20054;-51
2022/06/05 04:58:29;;;;;;;10.27;7.28;;;;;;;;;;5082583;28;20063;-50
2022/06/05 05:00:55;;;;;;;9.05;6.78;;;;;;;;;;5079268;28;20033;-51
2022/06/05 05:03:21;;;;;;;9.10;7.13;;;;;;;;;;5080655;28;20040;-51
2022/06/05 05:05:48;;;;;;;11.32;6.00;;;;;;;;;;5079472;28;20036;-51
2022/06/05 05:08:14;;;;;;;7.25;6.00;;;;;;;;;;5062564;28;20461;-50
2022/06/05 05:13:43;;;;;;;7.28;5.50;;;;;;;;;;5082552;28;20058;-51
2022/06/05 05:19:21;;;;;;;7.93;5.03;;;;;;;;;;5082626;28;20501;-51
2022/06/05 05:24:57;;;;;;;9.63;5.43;;;;;;;;;;5073733;28;20102;-51
2022/06/05 05:30:52;;;;;;;10.55;6.10;;;;;;;;;;5080048;28;20034;-51
2022/06/05 05:36:29;;;;;;;7.43;5.47;;;;;;;;;;5080296;28;20172;-51
2022/06/05 05:42:23;;;;;;;6.97;5.63;;;25.30;99.90;;;;;;5081090;28;20043;-51
2022/06/05 05:48:02;;;;;;;13.25;6.10;;;;;;;;;;5078581;28;20062;-51
2022/06/05 05:50:28;;;;;;;9.15;5.28;;;;;;;;;;5061504;28;20040;-51
2022/06/05 05:52:54;;;;;;;10.60;6.20;;;25.80;99.90;;;;;;5055412;28;20105;-51
2022/06/05 05:55:20;;;;;;;8.57;5.68;;;;;;;;;;5063738;28;20450;-51
2022/06/05 05:57:48;;;;;;;9.23;5.18;;;;;;;;;;5078586;28;20401;-51
2022/06/05 06:00:15;;;;;;;9.15;5.60;;;;;;;;;;5080530;28;20098;-52
2022/06/05 06:02:42;;;;;;;9.85;5.40;;;26.30;99.90;;;;;;5092147;28;20035;-51
2022/06/05 06:05:09;;;;;;;7.43;5.18;;;;;;;;;;5084900;28;20090;-51
2022/06/05 06:07:35;;;;;;;8.52;5.45;;;26.20;99.90;;;;;;5086420;28;20050;-51
2022/06/05 06:10:01;;;;;;;9.38;5.82;;;26.20;99.90;;;;;;5062752;28;20044;-51
2022/06/05 06:12:27;;;;;;;11.15;6.43;;;26.40;99.90;;;;;;5091178;28;20126;-51
2022/06/05 06:14:53;;;;;;;9.35;6.00;;;;;;;;;;5085585;28;20059;-51
2022/06/05 06:17:20;;;;;;;10.95;5.63;;;;;;;;;;5086487;28;20036;-52
2022/06/05 06:19:46;;;;;;;8.88;5.43;;;26.90;99.90;;;;;;5088210;28;20028;-51
2022/06/05 06:22:12;;;;;;;9.52;5.85;;;;;;;;;;5093637;28;20344;-52
2022/06/05 06:24:38;;;;;;;11.05;6.05;;;;;;;;;;5091176;28;20587;-51
2022/06/05 06:27:05;;;;;;;8.93;6.30;;;;;;;;;;5088511;28;20050;-51
2022/06/05 06:29:31;;;;;;;10.07;7.75;;;27.20;99.90;;;;;;5088852;28;20486;-52
2022/06/05 06:31:57;;;;;;;10.05;6.80;;;27.20;99.90;;;;;;5088903;28;20038;-52
2022/06/05 06:34:23;;;;;;;10.88;7.18;;;27.30;99.90;;;;;;5071066;28;20094;-50
2022/06/05 06:36:50;;;;;;;13.15;7.90;;;;;;;;;;5080334;28;20112;-51
2022/06/05 06:39:16;;;;;;;10.35;7.15;;;27.50;99.90;;;;;;5082477;28;20465;-51
2022/06/05 06:41:42;;;;;;;12.98;7.50;;;27.70;99.90;;;;;;5090036;28;20036;-51
2022/06/05 06:44:07;;;;;;;13.60;8.40;;;27.50;99.90;;;;;;5090232;28;20044;-51
2022/06/05 06:46:33;;;;;;;10.52;8.50;;;27.50;99.90;;;;;;5090996;28;20394;-52
2022/06/05 06:48:59;;;;;;;11.20;7.60;;;27.50;99.90;;;;;;5092487;28;20047;-51
2022/06/05 06:51:25;;;;;;;8.23;6.97;;;27.80;99.90;;;;;;5093469;28;20044;-51
2022/06/05 06:53:51;;;;;;;9.82;7.07;;;27.70;99.90;;;;;;5089551;28;20079;-50
2022/06/05 06:56:21;;;;;;;9.20;6.47;;;27.80;99.90;;;;;;5085700;28;20057;-51
2022/06/05 06:58:47;;;;;;;10.32;6.28;;;27.70;99.90;;;;;;5082945;28;20460;-53
2022/06/05 07:01:14;;;;;;;11.30;7.28;;;;;;;;;;5085046;28;20017;-53
2022/06/05 07:03:40;;;;;;;12.57;7.15;;;28.00;99.90;;;;;;5084119;28;20064;-53
2022/06/05 07:06:08;;;;;;;11.95;6.57;;;;;;;;;;5089273;28;20028;-56
2022/06/05 07:08:34;;;;;;;6.43;5.63;;;28.30;99.90;;;;;;5086287;28;20482;-54
2022/06/05 07:11:00;;;;;;;12.45;6.57;;;28.30;99.90;;;;;;5085165;28;20035;-57
2022/06/05 07:13:26;;;;;;;10.88;6.47;;;28.40;99.90;;;;;;5075034;28;20048;-55
2022/06/05 07:15:52;;;;;;;11.95;6.35;;;28.50;99.90;;;;;;5074733;28;20036;-54
2022/06/05 07:18:19;;;;;;;8.07;6.22;;;;;;;;;;5061910;28;20086;-57
2022/06/05 07:20:45;;;;;;;9.32;6.60;;;;;;;;;;5085462;28;20430;-55
2022/06/05 07:23:12;;;;;;;10.52;6.75;;;;;;;;;;5085841;28;20380;-57
2022/06/05 07:25:39;;;;;;;8.77;6.13;;;;;;;;;;5086193;28;20060;-55
2022/06/05 07:28:05;;;;;;;8.57;6.68;;;;;;;;;;5066807;28;20040;-56
2022/06/05 07:30:31;;;;;;;6.82;5.30;;;29.00;99.90;;;;;;5082743;28;20070;-57
2022/06/05 07:32:57;;;;;;;9.32;5.70;;;29.20;99.90;;;;;;5070026;28;20078;-57
2022/06/05 07:35:24;;;;;;;10.52;6.28;;;;;;;;;;5084961;28;20039;-53
2022/06/05 07:37:50;;;;;;;7.57;4.93;;;29.30;99.90;;;;;;5086032;28;20111;-53
2022/06/05 07:40:16;;;;;;;9.38;5.00;;;29.50;99.90;;;;;;5058176;28;20167;-55
2022/06/05 07:42:43;;;;;;;6.82;5.13;;;29.40;99.90;;;;;;5085588;28;20056;-56
2022/06/05 07:45:11;;;;;;;5.07;4.57;;;;;;;;;;5085619;28;20083;-57
2022/06/05 07:47:37;;;;;;;7.72;3.90;;;29.90;99.90;;;;;;5085297;28;20031;-55
2022/06/05 07:50:03;;;;;;;5.03;4.53;;;29.80;99.90;;;;;;5084054;28;20028;-54
2022/06/05 07:55:14;;;;;;;4.85;3.50;;;29.80;99.90;;;;;;5075615;28;20071;-58
2022/06/05 07:57:40;;;;;;;8.05;4.05;;;29.90;99.90;;;;;;5063879;28;20068;-54
2022/06/05 08:00:07;;;;;;;4.65;3.78;;;;;;;;;;5087170;28;20475;-52
2022/06/05 08:02:34;;;;;;;4.35;2.63;;;;;;;;;;5081540;28;20032;-54
2022/06/05 08:05:02;;;;;;;7.10;4.90;;;;;;;;;;5083204;28;20392;-55
2022/06/05 08:07:29;;;;;;;6.10;3.22;;;;;;;;;;5083337;28;20033;-53
2022/06/05 08:09:55;;;;;;;4.45;3.10;;;30.60;99.90;;;;;;5081280;28;20036;-54
2022/06/05 08:12:24;;;;;;;3.95;2.88;;;30.60;99.90;;;;;;5077491;28;20123;-57
2022/06/05 08:14:52;;;;;;;6.20;2.95;;;30.60;99.90;;;;;;5084757;28;20126;-54
2022/06/05 08:17:22;;;;;;;3.92;3.05;;;30.60;99.90;;;;;;5083300;28;20423;-54
2022/06/05 08:19:48;;;;;;;6.32;2.53;;;30.80;99.90;;;;;;5082984;28;20043;-55
2022/06/05 08:22:15;;;;;;;3.63;2.45;;;;;;;;;;5084336;28;20152;-53
2022/06/05 08:24:42;;;;;;;6.00;2.40;;;;;;;;;;5031411;28;20085;-52
2022/06/05 08:27:10;;;;;;;3.80;2.40;;;30.90;99.90;;;;;;5035383;28;20120;-55
2022/06/05 08:29:36;;;;;;;3.00;2.10;;;31.00;99.90;;;;;;5040285;28;20037;-53
2022/06/05 08:32:02;;;;;;;4.68;3.00;;;31.20;99.90;;;;;;5040175;28;20087;-54
2022/06/05 08:34:28;;;;;;;3.67;2.60;;;;;;;;;;5020171;28;20038;-56
2022/06/05 08:42:42;;;;;;;3.20;2.40;;;;;;;;;;5052568;28;20580;-56
2022/06/05 08:45:11;;;;;;;4.43;2.30;;;31.50;99.90;;;;;;5038173;28;20056;-55
2022/06/05 08:47:48;;;;;;;3.28;2.25;;;;;;;;;;5039858;28;20041;-57
2022/06/05 08:50:16;;;;;;;10.30;6.70;;;31.80;99.90;;;;;;5041779;28;20075;-55
2022/06/05 08:52:42;;;;;;;3.63;2.40;;;;;;;;;;5042451;28;20033;-57
2022/06/05 08:55:29;;;;;;;2.60;2.00;;;32.20;99.90;;;;;;5049376;28;20090;-54
2022/06/05 08:58:03;;;;;;;5.53;2.50;;;31.90;98.10;;;;;;5074575;28;20460;-55
2022/06/05 09:00:44;;;;;;;2.70;2.22;;;31.80;98.80;;;;;;5082237;28;20489;-54
2022/06/05 09:03:50;;;;;;;3.85;2.30;;;32.10;99.70;;;;;;5084091;28;20506;-55
2022/06/05 09:06:21;;;;;;;4.53;2.58;;;32.40;99.30;;;;;;5086581;28;20037;-53
2022/06/05 09:08:54;;;;;;;4.45;2.00;;;32.10;99.50;;;;;;5075610;28;20423;-56
2022/06/05 09:11:50;;;;;;;4.53;2.20;;;;;;;;;;5082198;28;20498;-54
2022/06/05 09:14:28;;;;;;;3.20;2.35;;;;;;;;;;5029571;28;20632;-54
2022/06/05 09:16:57;;;;;;;4.28;1.90;;;;;;;;;;5040386;28;20497;-57
2022/06/05 09:19:27;;;;;;;2.85;1.90;;;;;;;;;;5043573;28;20079;-57
2022/06/05 09:22:00;;;;;;;3.50;2.28;;;;;;;;;;5042922;28;21022;-54
2022/06/05 09:24:41;;;;;;;3.22;1.80;;;;;;;;;;5038241;28;20065;-52
2022/06/05 09:27:15;;;;;;;3.95;2.03;;;;;;;;;;5042288;28;20033;-56
2022/06/05 09:30:01;;;;;;;6.05;2.30;;;32.60;99.90;;;;;;5044975;28;20163;-58
2022/06/05 09:32:47;;;;;;;2.67;1.77;;;33.10;99.90;;;;;;5047217;28;20063;-52
2022/06/05 09:35:28;;;;;;;2.97;1.98;;;;;;;;;;5038475;28;20090;-57
2022/06/05 09:38:22;;;;;;;4.65;1.92;;;;;;;;;;5039581;28;20045;-54
2022/06/05 09:41:12;;;;;;;2.88;1.75;;;33.20;99.90;;;;;;5038516;28;20519;-54
2022/06/05 09:43:43;;;;;;;4.18;1.77;;;;;;;;;;5039562;28;20517;-56
2022/06/05 09:46:09;;;;;;;;;;;;;;;;;;5043025;28;20072;-56
2022/06/05 09:49:17;;;;;;;4.45;2.05;;;34.00;99.00;;;;;;5050369;28;20264;-53
2022/06/05 09:51:45;;;;;;;3.92;2.20;;;34.10;96.80;;;;;;5022246;28;20049;-57
2022/06/05 09:54:29;;;;;;;3.53;2.17;;;34.00;96.00;;;;;;5026228;28;20037;-54
2022/06/05 10:00:03;;;;;;;2.70;1.98;;;34.50;95.00;;;;;;5028568;28;20044;-54
2022/06/05 10:02:29;;;;;;;5.10;1.75;;;34.30;94.00;;;;;;4975997;28;20041;-55
2022/06/05 10:04:56;;;;;;;5.90;2.28;;;;;;;;;;4988396;28;20050;-54
2022/06/05 10:07:56;;;;;;;4.78;2.38;;;34.10;92.80;;;;;;5023336;28;20041;-53
2022/06/05 10:10:32;;;;;;;4.57;2.20;;;34.20;94.10;;;;;;5027531;28;20046;-53
2022/06/05 10:13:23;;;;;;;5.88;2.55;;;34.50;93.70;;;;;;4988869;28;20038;-55
2022/06/05 10:16:10;;;;;;;4.00;1.97;;;34.60;93.70;;;;;;5022107;28;20160;-56
2022/06/05 10:18:45;;;;;;;4.85;2.30;;;34.70;93.40;;;;;;5007000;28;20042;-54
2022/06/05 10:21:12;;;;;;;5.28;2.33;;;;;;;;;;5024011;28;20120;-57
2022/06/05 10:23:55;;;;;;;4.80;2.60;;;35.00;94.00;;;;;;5022677;28;20037;-55
2022/06/05 10:26:33;;;;;;;3.60;2.17;;;34.80;92.90;;;;;;5021388;28;20076;-54
2022/06/05 10:29:24;;;;;;;5.03;2.03;;;34.90;93.50;;;;;;5033162;28;20040;-55
2022/06/05 10:32:05;;;;;;;2.97;2.08;;;35.10;92.50;;;;;;5069986;28;20033;-53
2022/06/05 10:34:44;;;;;;;4.28;2.45;;;35.10;92.60;;;;;;5054407;28;20036;-54
2022/06/05 10:37:20;;;;;;;5.85;2.15;;;35.00;92.30;;;;;;5083249;28;20036;-53
2022/06/05 10:40:00;;;;;;;4.13;2.20;;;35.00;92.10;;;;;;5094552;28;20024;-54
2022/06/05 10:42:52;;;;;;;7.72;2.30;;;35.20;92.00;;;;;;5083160;28;20089;-55
2022/06/05 10:45:47;;;;;;;4.53;2.10;;;35.50;91.10;;;;;;5084558;28;20373;-57
2022/06/05 10:48:36;;;;;;;8.63;2.20;;;35.70;91.20;;;;;;5046013;28;20044;-56
2022/06/05 10:51:32;;;;;;;5.20;2.20;;;35.70;90.00;;;;;;5066079;28;20032;-55
2022/06/05 10:54:19;;;;;;;4.00;1.80;;;35.90;90.10;;;;;;5081252;28;20032;-53
2022/06/05 10:57:03;;;;;;;5.97;2.17;;;35.30;88.20;;;;;;5086766;28;20032;-54
2022/06/05 10:59:40;;;;;;;4.60;2.05;;;34.90;87.70;;;;;;5084562;28;20032;-53
2022/06/05 11:02:21;;;;;;;5.03;2.30;;;35.40;86.70;;;;;;5082475;28;20024;-55
2022/06/05 11:05:06;;;;;;;3.83;1.97;;;35.70;89.10;;;;;;5077492;28;20040;-53
2022/06/05 11:07:47;;;;;;;5.18;2.53;;;36.30;89.00;;;;;;5083816;28;20546;-54
2022/06/05 11:10:22;;;;;;;5.18;2.67;;;35.50;89.30;;;;;;5085571;28;20033;-53
2022/06/05 11:16:17;;;;;;;5.65;2.47;;;35.30;88.70;;;;;;5069191;28;20070;-57
2022/06/05 11:19:09;;;;;;;6.63;2.55;;;35.50;88.80;;;;;;5059947;28;20036;-54
2022/06/05 11:21:36;;;;;;;7.75;2.28;;;36.10;90.20;;;;;;5040547;28;20421;-57
2022/06/05 11:24:10;;;;;;;3.17;2.03;;;35.30;88.80;;;;;;5062541;28;20029;-55
2022/06/05 11:26:45;;;;;;;5.35;2.15;;;34.60;86.40;;;;;;5053622;28;20136;-57
2022/06/05 11:29:34;;;;;;;4.80;2.10;;;35.10;88.00;;;;;;5061466;28;20032;-57
2022/06/05 11:32:23;;;;;;;4.90;2.55;;;34.70;89.10;;;;;;5011629;28;20037;-53
2022/06/05 11:35:10;;;;;;;5.25;2.72;;;34.70;88.70;;;;;;5011071;28;20033;-52
2022/06/05 11:37:56;;;;;;;5.95;2.55;;;;;;;;;;5010939;28;20050;-54
2022/06/05 11:40:59;;;;;;;3.47;2.38;;;35.60;88.70;;;;;;5010661;28;20425;-52
2022/06/05 11:43:35;;;;;;;6.88;2.67;;;36.10;88.90;;;;;;5010707;28;20046;-51
2022/06/05 11:46:10;;;;;;;4.18;2.28;;;;;;;;;;5011464;28;20037;-50
2022/06/05 11:48:36;;;;;;;5.38;2.20;;;36.90;88.10;;;;;;5027538;28;20034;-51
2022/06/05 11:51:26;;;;;;;4.95;2.40;;;36.80;88.30;;;;;;5030441;28;20037;-54
2022/06/05 11:54:07;;;;;;;3.35;2.40;;;;;;;;;;5030541;28;20464;-54
2022/06/05 11:56:51;;;;;;;4.15;2.88;;;36.90;99.90;;;;;;5027769;28;20076;-52
2022/06/05 11:59:45;;;;;;;7.35;2.67;;;37.40;99.90;;;;;;5031477;28;20481;-53
2022/06/05 12:02:11;;;;;;;6.32;2.20;;;37.00;99.30;;;;;;5032408;28;20481;-54
2022/06/05 12:04:51;;;;;;;5.82;2.22;;;36.70;98.10;;;;;;5030482;28;20048;-54
2022/06/05 12:07:18;;;;;;;3.25;2.30;;;35.70;87.10;;;;;;5031479;28;20083;-55
2022/06/05 12:09:50;;;;;;;6.25;2.47;;;36.00;88.20;;;;;;5074432;28;20032;-52
2022/06/05 12:12:26;;;;;;;4.43;2.60;;;36.20;89.00;;;;;;5084641;28;20086;-53
2022/06/05 12:15:16;;;;;;;4.13;2.17;;;36.50;87.20;;;;;;5079940;28;20097;-51
2022/06/05 12:17:49;;;;;;;4.07;2.70;;;;;;;;;;5078348;28;20090;-51
2022/06/05 12:20:20;;;;;;;4.10;2.38;;;37.30;88.00;;;;;;5076887;28;20032;-55
2022/06/05 12:22:50;;;;;;;4.63;2.38;;;37.40;88.10;;;;;;5082846;28;20043;-55
2022/06/05 12:25:34;;;;;;;7.97;2.60;;;37.30;87.50;;;;;;5082971;28;20046;-50
2022/06/05 12:28:18;;;;;;;5.10;2.75;;;36.80;85.80;;;;;;5087506;28;20067;-51
2022/06/05 12:30:51;;;;;;;6.15;3.10;;;37.10;86.90;;;;;;5079182;28;20040;-52
2022/06/05 12:33:44;;;;;;;4.55;2.20;;;37.20;85.60;;;;;;5076140;28;20030;-53
2022/06/05 12:36:28;;;;;;;5.72;2.78;;;37.20;86.30;;;;;;5080391;28;20536;-54
2022/06/05 12:39:03;;;;;;;4.95;2.70;;;37.40;86.80;;;;;;5074779;28;20077;-53
2022/06/05 12:41:43;;;;;;;7.05;2.53;;;37.60;88.50;;;;;;5082401;28;20033;-55
2022/06/05 12:44:42;;;;;;;6.30;2.60;;;37.70;86.10;;;;;;5084958;28;20439;-53
2022/06/05 12:47:32;;;;;;;5.30;2.50;;;37.50;84.60;;;;;;5082274;28;20040;-54
2022/06/05 12:50:14;;;;;;;5.22;2.60;;;37.50;87.50;;;;;;5080416;28;20028;-53
2022/06/05 12:52:49;;;;;;;5.18;2.63;;;37.80;87.30;;;;;;5082972;28;20596;-51
2022/06/05 12:55:18;;;;;;;4.55;2.90;;;37.60;85.20;;;;;;5057819;28;20032;-55
2022/06/05 12:57:46;;;;;;;3.88;2.53;;;37.80;86.20;;;;;;5082563;28;20032;-55
2022/06/05 13:00:31;;;;;;;3.35;2.63;;;37.50;85.10;;;;;;5086236;28;20115;-53
2022/06/05 13:03:16;;;;;;;9.85;3.30;;;36.90;84.50;;;;;;5074272;28;20670;-51
2022/06/05 13:05:54;;;;;;;4.95;2.60;;;36.70;85.00;;;;;;5083111;28;20538;-54
2022/06/05 13:08:25;;;;;;;3.75;2.30;;;36.80;86.60;;;;;;5082761;28;20020;-51
2022/06/05 13:11:34;;;;;;;8.73;3.22;;;37.00;86.40;;;;;;5064358;28;20075;-53
2022/06/05 13:14:00;;;;;;;5.30;2.58;;;;;;;;;;5043181;28;20080;-53
2022/06/05 13:16:37;;;;;;;4.82;2.33;;;;;;;;;;5040601;28;20033;-54
2022/06/05 13:19:03;;;;;;;3.97;2.25;;;;;;;;;;5039873;28;20034;-54
2022/06/05 13:22:06;;;;;;;4.65;2.75;;;37.30;99.90;;;;;;5034027;28;20025;-52
2022/06/05 13:24:37;;;;;;;3.83;2.13;;;37.40;99.90;;;;;;5027677;28;20646;-51
2022/06/05 13:27:26;;;;;;;6.07;3.17;;;;;;;;;;5037586;28;20083;-52
2022/06/05 13:30:01;;;;;;;5.72;3.15;;;;;;;;;;5041885;28;20393;-50
2022/06/05 13:32:39;;;;;;;10.23;2.95;;;37.80;83.50;;;;;;5044664;28;20037;-54
2022/06/05 13:35:29;;;;;;;3.80;2.13;;;37.50;84.40;;;;;;5042238;28;20045;-53
2022/06/05 13:38:16;;;;;;;5.57;2.45;;;37.90;84.80;;;;;;4995112;28;20038;-52
2022/06/05 13:40:49;;;;;;;5.55;2.72;;;37.70;83.90;;;;;;5036085;28;20042;-55
2022/06/05 13:43:29;;;;;;;6.35;2.50;;;37.90;83.10;;;;;;5036662;28;20041;-51
2022/06/05 13:46:25;;;;;;;5.22;2.30;;;37.70;82.90;;;;;;5038246;28;20034;-54
2022/06/05 13:49:07;;;;;;;3.63;2.47;;;37.70;82.50;;;;;;5039101;28;20033;-50
2022/06/05 13:51:37;;;;;;;5.32;2.40;;;37.80;85.30;;;;;;5047255;28;20050;-53
2022/06/05 13:54:20;;;;;;;5.07;2.25;;;37.70;83.70;;;;;;5040441;28;20132;-51
2022/06/05 13:57:05;;;;;;;6.97;2.55;;;37.50;83.20;;;;;;5038925;28;20522;-50
2022/06/05 13:59:49;;;;;;;3.90;2.30;;;37.30;84.00;;;;;;5039176;28;20040;-51
2022/06/05 14:02:29;;;;;;;7.90;2.53;;;37.20;82.70;;;;;;5040172;28;20485;-54
2022/06/05 14:05:03;;;;;;;4.68;2.35;;;37.50;82.70;;;;;;5027497;28;20045;-55
2022/06/05 14:07:52;;;;;;;5.82;2.45;;;37.20;82.70;;;;;;5069431;28;20036;-52
2022/06/05 14:10:47;;;;;;;6.43;2.33;;;36.70;82.90;;;;;;5079178;28;20036;-51
2022/06/05 14:13:15;;;;;;;4.07;2.10;;;;;;;;;;5079096;28;20048;-55
2022/06/05 14:15:48;;;;;;;6.50;2.33;;;36.80;82.20;;;;;;5081010;28;20081;-54
2022/06/05 14:18:48;;;;;;;5.70;2.30;;;37.00;82.50;;;;;;5080187;28;20384;-53
2022/06/05 14:21:20;;;;;;;4.57;2.25;;;37.40;88.70;;;;;;5077332;28;20102;-54
2022/06/05 14:23:48;;;;;;;3.70;2.45;;;37.60;84.90;;;;;;5082022;28;20478;-54
2022/06/05 14:26:17;;;;;;;6.40;2.20;;;37.40;83.70;;;;;;5063133;28;20071;-55
2022/06/05 14:28:46;;;;;;;4.53;2.30;;;37.10;82.50;;;;;;5077963;28;20039;-54
2022/06/05 14:31:16;;;;;;;4.05;2.50;;;;;;;;;;5085545;28;20016;-50